createdAt,value
2022-10-31T00:00:32.830Z,15.17
2022-10-31T00:02:04.525Z,15.16
2022-10-31T00:03:36.246Z,15.08
2022-10-31T00:05:08.055Z,14.93
2022-10-31T00:06:39.554Z,14.77
2022-10-31T00:08:11.071Z,14.61
2022-10-31T00:09:43.217Z,14.50
2022-10-31T00:11:14.724Z,14.43
2022-10-31T00:12:46.361Z,14.36
2022-10-31T00:14:17.908Z,14.31
2022-10-31T00:15:49.516Z,14.29
2022-10-31T00:17:21.155Z,14.29
2022-10-31T00:18:53.516Z,14.29
2022-10-31T00:20:25.112Z,14.30
2022-10-31T00:21:56.853Z,14.36
2022-10-31T00:23:28.603Z,14.39
2022-10-31T00:25:00.175Z,14.38
2022-10-31T00:26:31.913Z,14.35
2022-10-31T00:28:04.623Z,14.35
2022-10-31T00:29:36.320Z,14.37
2022-10-31T00:31:08.516Z,14.37
2022-10-31T00:32:40.057Z,14.34
2022-10-31T00:34:11.858Z,14.30
2022-10-31T00:35:43.664Z,14.27
2022-10-31T00:37:15.303Z,14.26
2022-10-31T00:38:47.113Z,14.26
2022-10-31T00:40:18.698Z,14.24
2022-10-31T00:41:50.360Z,14.22
2022-10-31T00:43:22.008Z,14.17
2022-10-31T00:44:53.665Z,14.18
2022-10-31T00:46:25.139Z,14.20
2022-10-31T00:47:56.889Z,14.20
2022-10-31T00:49:29.704Z,14.20
2022-10-31T00:51:01.188Z,14.17
2022-10-31T00:52:32.790Z,14.17
2022-10-31T00:54:04.387Z,14.18
2022-10-31T00:55:36.004Z,14.24
2022-10-31T00:57:07.545Z,14.27
2022-10-31T00:58:39.159Z,14.31
2022-10-31T01:00:10.997Z,14.32
2022-10-31T01:01:42.691Z,14.33
2022-10-31T01:03:14.242Z,14.26
2022-10-31T01:04:45.870Z,14.21
2022-10-31T01:06:17.694Z,14.18
2022-10-31T01:07:49.186Z,14.15
2022-10-31T01:09:20.864Z,14.11
2022-10-31T01:10:59.480Z,14.06
2022-10-31T01:12:31.141Z,13.96
2022-10-31T01:14:02.730Z,13.90
2022-10-31T01:15:34.232Z,13.88
2022-10-31T01:17:05.800Z,13.86
2022-10-31T01:18:37.500Z,13.78
2022-10-31T01:20:09.423Z,13.69
2022-10-31T01:21:40.927Z,13.63
2022-10-31T01:23:12.574Z,13.59
2022-10-31T01:24:44.179Z,13.56
2022-10-31T01:26:16.757Z,13.55
2022-10-31T01:27:48.483Z,13.57
2022-10-31T01:29:20.078Z,13.62
2022-10-31T01:30:51.649Z,13.64
2022-10-31T01:32:23.777Z,13.64
2022-10-31T01:33:55.464Z,13.59
2022-10-31T01:35:27.072Z,13.55
2022-10-31T01:36:59.019Z,13.53
2022-10-31T01:38:31.066Z,13.53
2022-10-31T01:40:02.558Z,13.59
2022-10-31T01:41:35.319Z,13.63
2022-10-31T01:43:09.204Z,13.62
2022-10-31T01:44:40.868Z,13.56
2022-10-31T01:46:12.386Z,13.54
2022-10-31T01:47:47.085Z,13.54
2022-10-31T01:49:39.473Z,13.52
2022-10-31T01:51:11.263Z,13.55
2022-10-31T01:52:48.608Z,13.55
2022-10-31T01:54:21.120Z,13.59
2022-10-31T01:55:52.783Z,13.63
2022-10-31T01:57:24.393Z,13.65
2022-10-31T01:58:55.961Z,13.65
2022-10-31T02:00:27.481Z,13.65
2022-10-31T02:01:59.263Z,13.63
2022-10-31T02:03:30.940Z,13.59
2022-10-31T02:05:03.230Z,13.49
2022-10-31T02:07:01.151Z,13.39
2022-10-31T02:08:32.857Z,13.30
2022-10-31T02:10:05.272Z,13.25
2022-10-31T02:11:36.937Z,13.21
2022-10-31T02:13:08.635Z,13.14
2022-10-31T02:14:40.333Z,13.10
2022-10-31T02:16:11.996Z,13.12
2022-10-31T02:17:44.136Z,13.15
2022-10-31T02:19:18.879Z,13.17
2022-10-31T02:20:59.026Z,13.18
2022-10-31T02:22:31.785Z,13.26
2022-10-31T02:24:06.113Z,13.34
2022-10-31T02:25:37.823Z,13.43
2022-10-31T02:27:21.375Z,13.48
2022-10-31T02:28:56.016Z,13.52
2022-10-31T02:30:46.414Z,13.57
2022-10-31T02:32:20.665Z,13.61
2022-10-31T02:33:53.602Z,13.69
2022-10-31T02:35:48.237Z,13.70
2022-10-31T02:37:38.426Z,13.70
2022-10-31T02:39:10.008Z,13.74
2022-10-31T02:40:50.423Z,13.75
2022-10-31T02:42:33.640Z,13.74
2022-10-31T02:44:17.721Z,13.72
2022-10-31T02:46:04.436Z,13.68
2022-10-31T02:47:39.542Z,13.66
2022-10-31T02:49:12.811Z,13.67
2022-10-31T02:50:46.563Z,13.67
2022-10-31T02:52:28.070Z,13.65
2022-10-31T02:53:59.691Z,13.59
2022-10-31T02:55:31.226Z,13.58
2022-10-31T02:57:04.309Z,13.61
2022-10-31T02:58:39.416Z,13.60
2022-10-31T03:00:11.281Z,13.56
2022-10-31T03:01:55.609Z,13.50
2022-10-31T03:03:30.907Z,13.47
2022-10-31T03:05:02.558Z,13.43
2022-10-31T03:06:49.438Z,13.34
2022-10-31T03:08:23.802Z,13.26
2022-10-31T03:09:55.755Z,13.16
2022-10-31T03:11:30.618Z,13.15
2022-10-31T03:13:28.338Z,13.19
2022-10-31T03:15:02.855Z,13.22
2022-10-31T03:16:37.455Z,13.22
2022-10-31T03:18:09.733Z,13.21
2022-10-31T03:19:41.994Z,13.18
2022-10-31T03:21:17.905Z,13.13
2022-10-31T03:22:50.209Z,13.10
2022-10-31T03:24:21.927Z,13.08
2022-10-31T03:25:54.124Z,13.04
2022-10-31T03:27:26.817Z,13.01
2022-10-31T03:28:59.481Z,12.99
2022-10-31T03:30:31.022Z,12.98
2022-10-31T03:32:09.597Z,12.97
2022-10-31T03:33:41.113Z,13.00
2022-10-31T03:35:12.886Z,12.97
2022-10-31T03:36:44.461Z,12.95
2022-10-31T03:38:16.077Z,12.90
2022-10-31T03:39:47.878Z,12.84
2022-10-31T03:41:20.938Z,12.82
2022-10-31T03:42:56.921Z,12.79
2022-10-31T03:44:28.705Z,12.73
2022-10-31T03:46:00.343Z,12.68
2022-10-31T03:47:32.129Z,12.63
2022-10-31T03:49:03.686Z,12.60
2022-10-31T03:50:47.309Z,12.60
2022-10-31T03:52:20.807Z,12.60
2022-10-31T03:53:57.082Z,12.58
2022-10-31T03:55:32.880Z,12.59
2022-10-31T03:57:14.868Z,12.65
2022-10-31T03:58:48.428Z,12.71
2022-10-31T04:00:20.180Z,12.77
2022-10-31T04:01:52.680Z,12.82
2022-10-31T04:03:27.875Z,12.90
2022-10-31T04:05:00.008Z,12.94
2022-10-31T04:06:31.574Z,12.97
2022-10-31T04:08:03.875Z,12.97
2022-10-31T04:09:36.435Z,12.97
2022-10-31T04:11:07.996Z,13.02
2022-10-31T04:12:39.615Z,13.01
2022-10-31T04:14:11.195Z,12.97
2022-10-31T04:15:42.816Z,12.96
2022-10-31T04:17:15.178Z,12.91
2022-10-31T04:18:46.848Z,12.86
2022-10-31T04:20:18.487Z,12.81
2022-10-31T04:21:50.133Z,12.81
2022-10-31T04:23:23.922Z,12.79
2022-10-31T04:24:55.491Z,12.75
2022-10-31T04:26:27.126Z,12.73
2022-10-31T04:27:59.147Z,12.71
2022-10-31T04:29:31.144Z,12.68
2022-10-31T04:31:03.758Z,12.64
2022-10-31T04:32:35.371Z,12.62
2022-10-31T04:34:08.434Z,12.57
2022-10-31T04:35:39.987Z,12.53
2022-10-31T04:37:11.599Z,12.46
2022-10-31T04:38:43.119Z,12.36
2022-10-31T04:40:14.731Z,12.29
2022-10-31T04:41:46.245Z,12.28
2022-10-31T04:43:17.994Z,12.27
2022-10-31T04:44:49.544Z,12.28
2022-10-31T04:46:21.340Z,12.31
2022-10-31T04:47:52.944Z,12.39
2022-10-31T04:49:24.572Z,12.42
2022-10-31T04:51:02.462Z,12.47
2022-10-31T04:52:34.006Z,12.50
2022-10-31T04:54:05.949Z,12.55
2022-10-31T04:55:37.732Z,12.61
2022-10-31T04:57:09.382Z,12.62
2022-10-31T04:58:41.017Z,12.62
2022-10-31T05:00:12.907Z,12.59
2022-10-31T05:01:44.641Z,12.57
2022-10-31T05:03:16.386Z,12.50
2022-10-31T05:04:48.009Z,12.48
2022-10-31T05:06:19.522Z,12.47
2022-10-31T05:07:51.441Z,12.38
2022-10-31T05:09:22.962Z,12.27
2022-10-31T05:10:54.574Z,12.18
2022-10-31T05:12:26.069Z,12.12
2022-10-31T05:13:57.742Z,12.09
2022-10-31T05:15:29.354Z,12.08
2022-10-31T05:17:00.850Z,12.06
2022-10-31T05:18:32.368Z,12.06
2022-10-31T05:20:07.104Z,12.06
2022-10-31T05:21:38.647Z,12.07
2022-10-31T05:23:10.276Z,12.11
2022-10-31T05:24:41.872Z,12.09
2022-10-31T05:26:13.509Z,12.11
2022-10-31T05:27:48.569Z,12.12
2022-10-31T05:29:20.213Z,12.12
2022-10-31T05:30:51.897Z,12.13
2022-10-31T05:32:23.618Z,12.12
2022-10-31T05:33:55.181Z,12.11
2022-10-31T05:35:30.592Z,12.10
2022-10-31T05:37:02.923Z,12.10
2022-10-31T05:38:34.746Z,12.09
2022-10-31T05:40:08.415Z,12.10
2022-10-31T05:41:40.232Z,12.08
2022-10-31T05:43:11.780Z,12.00
2022-10-31T05:44:43.582Z,12.02
2022-10-31T05:46:15.177Z,11.97
2022-10-31T05:47:52.930Z,11.93
2022-10-31T05:49:24.730Z,11.92
2022-10-31T05:50:56.690Z,11.92
2022-10-31T05:52:28.207Z,11.92
2022-10-31T05:53:59.908Z,11.94
2022-10-31T05:55:31.894Z,11.97
2022-10-31T05:57:03.535Z,11.99
2022-10-31T05:58:35.694Z,12.03
2022-10-31T06:00:07.616Z,12.08
2022-10-31T06:01:39.335Z,12.16
2022-10-31T06:03:11.153Z,12.28
2022-10-31T06:04:42.866Z,12.48
2022-10-31T06:06:14.565Z,12.65
2022-10-31T06:07:46.196Z,12.85
2022-10-31T06:09:17.773Z,13.00
2022-10-31T06:10:49.276Z,13.21
2022-10-31T06:12:20.791Z,13.37
2022-10-31T06:13:52.517Z,13.59
2022-10-31T06:15:25.008Z,13.78
2022-10-31T06:16:56.780Z,13.97
2022-10-31T06:18:28.471Z,14.16
2022-10-31T06:20:00.116Z,14.37
2022-10-31T06:21:31.845Z,14.56
2022-10-31T06:23:04.066Z,14.72
2022-10-31T06:24:36.033Z,14.90
2022-10-31T06:26:07.590Z,15.07
2022-10-31T06:27:39.570Z,15.20
2022-10-31T06:29:11.311Z,15.36
2022-10-31T06:30:42.807Z,15.53
2022-10-31T06:32:14.780Z,15.72
2022-10-31T06:33:46.551Z,15.90
2022-10-31T06:35:18.664Z,16.06
2022-10-31T06:36:50.451Z,16.22
2022-10-31T06:38:22.049Z,16.40
2022-10-31T06:39:53.680Z,16.48
2022-10-31T06:41:25.277Z,16.55
2022-10-31T06:43:00.112Z,16.58
2022-10-31T06:44:31.851Z,16.63
2022-10-31T06:46:03.927Z,16.71
2022-10-31T06:47:50.814Z,16.77
2022-10-31T06:49:27.715Z,16.83
2022-10-31T06:51:00.726Z,16.91
2022-10-31T06:52:32.308Z,17.02
2022-10-31T06:54:04.022Z,17.05
2022-10-31T06:55:35.681Z,17.13
2022-10-31T06:57:07.230Z,17.26
2022-10-31T06:58:38.942Z,17.35
2022-10-31T07:00:11.236Z,17.52
2022-10-31T07:01:42.991Z,17.65
2022-10-31T07:03:15.620Z,17.83
2022-10-31T07:04:47.136Z,17.96
2022-10-31T07:06:20.892Z,18.06
2022-10-31T07:07:55.845Z,18.13
2022-10-31T07:09:27.464Z,18.27
2022-10-31T07:10:59.625Z,18.36
2022-10-31T07:12:31.215Z,18.51
2022-10-31T07:14:02.836Z,18.67
2022-10-31T07:15:35.228Z,18.76
2022-10-31T07:17:07.123Z,18.79
2022-10-31T07:18:38.810Z,18.83
2022-10-31T07:20:10.727Z,18.81
2022-10-31T07:21:42.940Z,18.78
2022-10-31T07:23:14.505Z,18.74
2022-10-31T07:24:46.099Z,18.66
2022-10-31T07:26:18.397Z,18.58
2022-10-31T07:27:50.229Z,18.58
2022-10-31T07:29:22.171Z,18.59
2022-10-31T07:30:54.318Z,18.57
2022-10-31T07:32:25.889Z,18.46
2022-10-31T07:33:57.502Z,18.40
2022-10-31T07:35:29.620Z,18.41
2022-10-31T07:37:02.737Z,18.42
2022-10-31T07:38:34.298Z,18.29
2022-10-31T07:40:06.360Z,18.28
2022-10-31T07:41:37.906Z,18.22
2022-10-31T07:43:13.953Z,18.27
2022-10-31T07:44:46.233Z,18.36
2022-10-31T07:46:18.011Z,18.47
2022-10-31T07:47:50.724Z,18.62
2022-10-31T07:49:22.389Z,18.80
2022-10-31T07:50:54.207Z,18.85
2022-10-31T07:52:26.584Z,18.89
2022-10-31T07:53:58.218Z,18.81
2022-10-31T07:55:29.812Z,18.87
2022-10-31T07:57:01.451Z,18.88
2022-10-31T07:58:33.089Z,18.91
2022-10-31T08:00:13.602Z,18.94
2022-10-31T08:01:45.404Z,19.04
2022-10-31T08:03:17.707Z,19.09
2022-10-31T08:04:49.524Z,19.17
2022-10-31T08:06:21.100Z,19.36
2022-10-31T08:07:52.765Z,19.58
2022-10-31T08:09:24.335Z,19.78
2022-10-31T08:10:56.184Z,19.91
2022-10-31T08:12:27.945Z,19.89
2022-10-31T08:13:59.566Z,19.86
2022-10-31T08:15:31.135Z,19.88
2022-10-31T08:17:02.731Z,19.90
2022-10-31T08:18:34.387Z,19.92
2022-10-31T08:20:06.234Z,19.93
2022-10-31T08:21:38.023Z,19.97
2022-10-31T08:23:10.106Z,20.04
2022-10-31T08:24:41.693Z,20.13
2022-10-31T08:26:13.225Z,20.29
2022-10-31T08:27:44.948Z,20.44
2022-10-31T08:29:16.584Z,20.56
2022-10-31T08:30:48.705Z,20.75
2022-10-31T08:32:20.220Z,21.00
2022-10-31T08:33:53.246Z,21.20
2022-10-31T08:35:24.785Z,21.30
2022-10-31T08:36:56.375Z,21.35
2022-10-31T08:38:31.086Z,21.45
2022-10-31T08:40:02.597Z,21.60
2022-10-31T08:41:34.169Z,21.70
2022-10-31T08:43:06.590Z,21.86
2022-10-31T08:44:38.140Z,21.93
2022-10-31T08:46:09.763Z,21.95
2022-10-31T08:47:41.351Z,22.03
2022-10-31T08:49:12.892Z,22.17
2022-10-31T08:50:44.697Z,22.30
2022-10-31T08:52:17.192Z,22.40
2022-10-31T08:53:48.767Z,22.53
2022-10-31T08:55:20.485Z,22.65
2022-10-31T08:56:55.626Z,22.63
2022-10-31T08:58:27.329Z,22.58
2022-10-31T08:59:58.920Z,22.70
2022-10-31T09:01:30.691Z,22.75
2022-10-31T09:03:03.130Z,22.90
2022-10-31T09:04:34.786Z,23.06
2022-10-31T09:06:09.834Z,23.21
2022-10-31T09:07:41.571Z,23.35
2022-10-31T09:09:13.395Z,23.45
2022-10-31T09:10:45.429Z,23.55
2022-10-31T09:12:17.180Z,23.63
2022-10-31T09:13:48.828Z,23.73
2022-10-31T09:15:20.428Z,23.75
2022-10-31T09:16:53.095Z,23.78
2022-10-31T09:18:25.345Z,23.86
2022-10-31T09:19:57.109Z,23.90
2022-10-31T09:21:28.740Z,24.02
2022-10-31T09:23:04.369Z,24.16
2022-10-31T09:24:35.983Z,24.23
2022-10-31T09:26:07.844Z,24.16
2022-10-31T09:27:39.522Z,24.18
2022-10-31T09:29:11.060Z,24.32
2022-10-31T09:30:43.262Z,24.35
2022-10-31T09:32:15.188Z,24.35
2022-10-31T09:33:46.846Z,24.40
2022-10-31T09:36:52.050Z,24.48
2022-10-31T09:38:24.487Z,24.59
2022-10-31T09:39:56.322Z,24.60
2022-10-31T09:41:36.308Z,24.60
2022-10-31T09:43:17.210Z,24.77
2022-10-31T09:44:53.242Z,24.86
2022-10-31T09:46:31.272Z,25.07
2022-10-31T09:48:03.497Z,25.25
2022-10-31T09:49:38.929Z,25.28
2022-10-31T09:51:13.767Z,25.36
2022-10-31T09:52:49.183Z,25.54
2022-10-31T09:54:36.255Z,25.62
2022-10-31T09:56:09.367Z,25.83
2022-10-31T09:57:41.315Z,25.99
2022-10-31T09:59:14.556Z,26.15
2022-10-31T10:00:46.583Z,26.22
2022-10-31T10:02:18.240Z,26.29
2022-10-31T10:03:50.800Z,26.48
2022-10-31T10:05:28.536Z,26.62
2022-10-31T10:07:01.056Z,26.80
2022-10-31T10:08:33.371Z,26.99
2022-10-31T10:10:13.832Z,27.24
2022-10-31T10:12:05.672Z,27.46
2022-10-31T10:14:06.168Z,27.61
2022-10-31T10:15:47.673Z,27.75
2022-10-31T10:17:26.496Z,27.89
2022-10-31T10:19:13.264Z,27.93
2022-10-31T10:21:03.701Z,28.00
2022-10-31T10:22:41.061Z,28.10
2022-10-31T10:24:12.563Z,28.22
2022-10-31T10:25:44.164Z,28.24
2022-10-31T10:27:23.339Z,28.27
2022-10-31T10:28:59.608Z,28.32
2022-10-31T10:30:42.316Z,28.23
2022-10-31T10:32:28.204Z,28.27
2022-10-31T10:34:04.228Z,28.41
2022-10-31T10:35:36.363Z,28.52
2022-10-31T10:37:15.576Z,28.65
2022-10-31T10:39:00.781Z,28.70
2022-10-31T10:40:32.517Z,28.72
2022-10-31T10:42:24.505Z,28.83
2022-10-31T10:43:56.314Z,28.88
2022-10-31T10:45:46.962Z,29.05
2022-10-31T10:47:36.982Z,29.17
2022-10-31T10:49:18.136Z,29.24
2022-10-31T10:50:50.383Z,29.42
2022-10-31T10:52:50.569Z,29.50
2022-10-31T10:54:34.787Z,29.54
2022-10-31T10:56:06.486Z,29.53
2022-10-31T10:57:56.401Z,29.53
2022-10-31T10:59:29.350Z,29.57
2022-10-31T11:01:01.541Z,29.60
2022-10-31T11:02:33.956Z,29.64
2022-10-31T11:04:06.736Z,29.75
2022-10-31T11:05:40.516Z,29.85
2022-10-31T11:07:13.516Z,29.88
2022-10-31T11:08:45.032Z,29.88
2022-10-31T11:10:16.757Z,29.85
2022-10-31T11:11:51.668Z,29.96
2022-10-31T11:13:24.499Z,30.02
2022-10-31T11:15:00.613Z,30.17
2022-10-31T11:16:40.688Z,30.22
2022-10-31T11:18:20.439Z,30.25
2022-10-31T11:20:01.322Z,30.23
2022-10-31T11:21:35.758Z,30.18
2022-10-31T11:23:18.245Z,30.18
2022-10-31T11:24:50.214Z,30.28
2022-10-31T11:26:22.425Z,30.36
2022-10-31T11:28:01.129Z,30.36
2022-10-31T11:29:33.344Z,30.35
2022-10-31T11:31:14.019Z,30.39
2022-10-31T11:32:48.313Z,30.36
2022-10-31T11:34:40.506Z,30.44
2022-10-31T11:36:39.618Z,30.46
2022-10-31T11:38:15.363Z,30.24
2022-10-31T11:39:54.342Z,30.22
2022-10-31T11:41:26.088Z,30.21
2022-10-31T11:42:58.912Z,30.26
2022-10-31T11:44:32.066Z,30.27
2022-10-31T11:46:10.839Z,30.24
2022-10-31T11:47:56.645Z,30.29
2022-10-31T11:49:31.922Z,30.40
2022-10-31T11:51:03.963Z,30.47
2022-10-31T11:52:38.721Z,30.45
2022-10-31T11:54:20.706Z,30.38
2022-10-31T11:56:12.718Z,30.25
2022-10-31T11:57:46.464Z,30.10
2022-10-31T11:59:31.558Z,30.10
2022-10-31T12:01:03.777Z,30.07
2022-10-31T12:02:35.714Z,29.93
2022-10-31T12:04:13.853Z,29.73
2022-10-31T12:05:45.988Z,29.38
2022-10-31T12:07:17.832Z,29.14
2022-10-31T12:08:49.422Z,28.86
2022-10-31T12:10:21.765Z,28.64
2022-10-31T12:11:53.473Z,28.48
2022-10-31T12:13:34.764Z,28.38
2022-10-31T12:15:07.698Z,28.37
2022-10-31T12:16:54.453Z,28.33
2022-10-31T12:18:32.538Z,28.33
2022-10-31T12:20:08.484Z,28.37
2022-10-31T12:21:58.757Z,28.45
2022-10-31T12:23:35.282Z,28.54
2022-10-31T12:25:16.073Z,28.63
2022-10-31T12:26:56.161Z,28.72
2022-10-31T12:28:33.078Z,28.82
2022-10-31T12:30:10.708Z,28.93
2022-10-31T12:31:52.112Z,29.01
2022-10-31T12:33:36.073Z,29.07
2022-10-31T12:35:25.068Z,29.19
2022-10-31T12:37:08.877Z,29.29
2022-10-31T12:38:43.892Z,29.33
2022-10-31T12:40:37.583Z,29.37
2022-10-31T12:42:27.792Z,29.46
2022-10-31T12:44:08.782Z,29.46
2022-10-31T12:45:40.467Z,29.51
2022-10-31T12:47:31.243Z,29.56
2022-10-31T12:49:09.522Z,29.58
2022-10-31T12:50:44.000Z,29.68
2022-10-31T12:52:34.118Z,29.69
2022-10-31T12:54:19.543Z,29.65
2022-10-31T12:55:54.283Z,29.60
2022-10-31T12:57:29.502Z,29.59
2022-10-31T12:59:03.075Z,29.66
2022-10-31T13:00:34.722Z,29.71
2022-10-31T13:02:25.416Z,29.75
2022-10-31T13:03:58.740Z,29.73
2022-10-31T13:05:31.798Z,29.73
2022-10-31T13:07:05.428Z,29.75
2022-10-31T13:08:45.120Z,29.76
2022-10-31T13:10:18.757Z,29.79
2022-10-31T13:11:53.278Z,29.76
2022-10-31T13:13:24.948Z,29.71
2022-10-31T13:14:58.144Z,29.70
2022-10-31T13:16:31.227Z,29.70
2022-10-31T13:18:05.922Z,29.69
2022-10-31T13:19:39.511Z,29.70
2022-10-31T13:21:13.013Z,29.71
2022-10-31T13:22:45.784Z,29.73
2022-10-31T13:24:21.903Z,29.68
2022-10-31T13:25:54.629Z,29.64
2022-10-31T13:27:26.276Z,29.61
2022-10-31T13:29:02.876Z,29.58
2022-10-31T13:30:35.243Z,29.61
2022-10-31T13:32:07.757Z,29.62
2022-10-31T13:33:39.675Z,29.55
2022-10-31T13:35:16.133Z,29.50
2022-10-31T13:37:01.943Z,29.49
2022-10-31T13:38:39.356Z,29.43
2022-10-31T13:40:19.251Z,29.32
2022-10-31T13:42:09.823Z,29.22
2022-10-31T13:43:59.978Z,29.06
2022-10-31T13:45:32.613Z,28.82
2022-10-31T13:47:04.630Z,28.73
2022-10-31T13:48:37.318Z,28.61
2022-10-31T13:50:28.590Z,28.55
2022-10-31T13:52:12.675Z,28.50
2022-10-31T13:53:46.131Z,28.48
2022-10-31T13:55:37.046Z,28.48
2022-10-31T13:57:13.874Z,28.47
2022-10-31T13:59:03.931Z,28.45
2022-10-31T14:00:36.790Z,28.45
2022-10-31T14:02:14.854Z,28.45
2022-10-31T14:04:11.042Z,28.41
2022-10-31T14:05:45.189Z,28.34
2022-10-31T14:07:22.151Z,28.33
2022-10-31T14:08:54.262Z,28.33
2022-10-31T14:10:30.030Z,28.32
2022-10-31T14:12:06.442Z,28.29
2022-10-31T14:13:44.289Z,28.31
2022-10-31T14:15:19.977Z,28.28
2022-10-31T14:16:55.883Z,28.26
2022-10-31T14:18:31.617Z,28.23
2022-10-31T14:20:21.594Z,28.19
2022-10-31T14:21:53.407Z,28.13
2022-10-31T14:23:34.369Z,28.13
2022-10-31T14:25:24.560Z,28.09
2022-10-31T14:26:56.263Z,28.03
2022-10-31T14:28:37.501Z,27.98
2022-10-31T14:30:14.821Z,27.94
2022-10-31T14:32:11.873Z,27.91
2022-10-31T14:33:43.609Z,27.85
2022-10-31T14:35:21.074Z,27.74
2022-10-31T14:37:01.283Z,27.68
2022-10-31T14:38:57.120Z,27.61
2022-10-31T14:40:37.413Z,27.52
2022-10-31T14:42:13.789Z,27.46
2022-10-31T14:43:48.326Z,27.41
2022-10-31T14:45:34.120Z,27.36
2022-10-31T14:47:18.413Z,27.30
2022-10-31T14:49:08.917Z,27.26
2022-10-31T14:50:43.533Z,27.22
2022-10-31T14:52:15.677Z,27.17
2022-10-31T14:53:49.550Z,27.11
2022-10-31T14:55:21.225Z,27.04
2022-10-31T14:56:54.614Z,26.97
2022-10-31T14:58:47.859Z,26.88
2022-10-31T15:00:20.319Z,26.75
2022-10-31T15:01:57.888Z,26.64
2022-10-31T15:03:31.778Z,26.57
2022-10-31T15:05:08.032Z,26.48
2022-10-31T15:06:50.213Z,26.37
2022-10-31T15:08:40.429Z,26.23
2022-10-31T15:10:25.405Z,26.08
2022-10-31T15:11:57.145Z,25.96
2022-10-31T15:13:29.084Z,25.87
2022-10-31T15:15:21.065Z,25.77
2022-10-31T15:16:52.899Z,25.64
2022-10-31T15:18:27.761Z,25.55
2022-10-31T15:19:59.555Z,25.37
2022-10-31T15:21:31.280Z,25.27
2022-10-31T15:23:02.945Z,25.12
2022-10-31T15:24:35.988Z,25.06
2022-10-31T15:26:07.585Z,24.98
2022-10-31T15:27:41.147Z,24.84
2022-10-31T15:29:13.676Z,24.72
2022-10-31T15:30:52.023Z,24.66
2022-10-31T15:32:24.162Z,24.55
2022-10-31T15:33:56.025Z,24.44
2022-10-31T15:35:28.931Z,24.32
2022-10-31T15:37:00.482Z,24.21
2022-10-31T15:38:32.187Z,24.09
2022-10-31T15:40:15.718Z,23.99
2022-10-31T15:41:54.449Z,23.93
2022-10-31T15:43:26.440Z,23.84
2022-10-31T15:45:06.457Z,23.73
2022-10-31T15:46:38.119Z,23.65
2022-10-31T15:48:39.502Z,23.58
2022-10-31T15:50:26.251Z,23.50
2022-10-31T15:52:01.205Z,23.39
2022-10-31T15:53:46.194Z,23.30
2022-10-31T15:55:22.053Z,23.25
2022-10-31T15:56:53.999Z,23.20
2022-10-31T15:58:25.630Z,23.11
2022-10-31T15:59:57.320Z,23.04
2022-10-31T16:01:29.982Z,22.93
2022-10-31T16:03:05.677Z,22.83
2022-10-31T16:04:37.327Z,22.74
2022-10-31T16:06:19.674Z,22.67
2022-10-31T16:07:51.438Z,22.59
2022-10-31T16:09:23.450Z,22.49
2022-10-31T16:10:55.427Z,22.43
2022-10-31T16:12:37.283Z,22.43
2022-10-31T16:14:18.474Z,22.40
2022-10-31T16:16:29.318Z,22.36
2022-10-31T16:17:57.942Z,22.30
2022-10-31T16:19:33.999Z,22.20
2022-10-31T16:21:06.199Z,22.11
2022-10-31T16:22:38.428Z,21.98
2022-10-31T16:24:22.201Z,21.88
2022-10-31T16:25:54.010Z,21.80
2022-10-31T16:27:30.545Z,21.74
2022-10-31T16:29:05.419Z,21.70
2022-10-31T16:30:47.041Z,21.64
2022-10-31T16:32:29.144Z,21.63
2022-10-31T16:34:04.663Z,21.55
2022-10-31T16:35:36.852Z,21.50
2022-10-31T16:37:08.492Z,21.42
2022-10-31T16:38:40.110Z,21.40
2022-10-31T16:40:14.632Z,21.38
2022-10-31T16:41:50.583Z,21.32
2022-10-31T16:43:23.288Z,21.25
2022-10-31T16:44:54.961Z,21.21
2022-10-31T16:46:27.232Z,21.18
2022-10-31T16:48:10.913Z,21.17
2022-10-31T16:49:43.301Z,21.12
2022-10-31T16:51:15.040Z,21.11
2022-10-31T16:54:40.235Z,21.10
2022-10-31T16:56:18.931Z,21.09
2022-10-31T16:57:51.589Z,21.10
2022-10-31T16:59:23.205Z,21.08
2022-10-31T17:00:55.024Z,21.05
2022-10-31T17:02:26.954Z,21.03
2022-10-31T17:03:58.659Z,21.00
2022-10-31T17:05:31.097Z,20.93
2022-10-31T17:07:02.635Z,20.93
2022-10-31T17:08:34.256Z,20.91
2022-10-31T17:10:06.221Z,20.88
2022-10-31T17:11:37.828Z,20.86
2022-10-31T17:13:11.847Z,20.84
2022-10-31T17:14:43.437Z,20.82
2022-10-31T17:16:17.949Z,20.81
2022-10-31T17:17:49.788Z,20.80
2022-10-31T17:19:21.662Z,20.78
2022-10-31T17:20:56.805Z,20.75
2022-10-31T17:22:29.124Z,20.73
2022-10-31T17:24:01.117Z,20.77
2022-10-31T17:25:32.697Z,20.78
2022-10-31T17:27:04.345Z,20.81
2022-10-31T17:28:36.362Z,20.85
2022-10-31T17:30:08.641Z,20.80
2022-10-31T17:31:40.533Z,20.76
2022-10-31T17:33:15.611Z,20.79
2022-10-31T17:34:47.509Z,20.81
2022-10-31T17:36:19.289Z,20.80
2022-10-31T17:37:50.890Z,20.76
2022-10-31T17:39:23.499Z,20.71
2022-10-31T17:40:55.139Z,20.67
2022-10-31T17:42:26.775Z,20.64
2022-10-31T17:43:59.172Z,20.61
2022-10-31T17:45:30.739Z,20.60
2022-10-31T17:47:03.063Z,20.58
2022-10-31T17:48:35.031Z,20.53
2022-10-31T17:50:07.180Z,20.44
2022-10-31T17:51:38.721Z,20.29
2022-10-31T17:53:10.920Z,20.16
2022-10-31T17:54:42.685Z,20.06
2022-10-31T17:56:14.521Z,19.96
2022-10-31T17:57:46.471Z,19.90
2022-10-31T17:59:18.133Z,19.89
2022-10-31T18:00:51.350Z,19.91
2022-10-31T18:02:23.251Z,19.88
2022-10-31T18:03:54.867Z,19.87
2022-10-31T18:05:26.521Z,19.86
2022-10-31T18:06:58.049Z,19.82
2022-10-31T18:08:33.431Z,19.79
2022-10-31T18:10:06.041Z,19.73
2022-10-31T18:11:37.726Z,19.69
2022-10-31T18:13:09.385Z,19.61
2022-10-31T18:14:47.299Z,19.58
2022-10-31T18:16:19.941Z,19.51
2022-10-31T18:17:51.633Z,19.44
2022-10-31T18:19:23.202Z,19.37
2022-10-31T18:20:57.469Z,19.34
2022-10-31T18:22:29.415Z,19.33
2022-10-31T18:24:02.224Z,19.32
2022-10-31T18:25:34.008Z,19.29
2022-10-31T18:27:05.678Z,19.25
2022-10-31T18:28:37.630Z,19.19
2022-10-31T18:30:09.657Z,19.14
2022-10-31T18:31:41.600Z,19.14
2022-10-31T18:33:13.328Z,19.11
2022-10-31T18:34:45.067Z,19.12
2022-10-31T18:36:16.692Z,19.14
2022-10-31T18:37:48.374Z,19.18
2022-10-31T18:39:20.172Z,19.24
2022-10-31T18:40:51.796Z,19.28
2022-10-31T18:42:23.375Z,19.30
2022-10-31T18:43:58.648Z,19.32
2022-10-31T18:45:41.567Z,19.36
2022-10-31T18:47:19.357Z,19.37
2022-10-31T18:48:51.712Z,19.42
2022-10-31T18:50:23.872Z,19.44
2022-10-31T18:51:55.563Z,19.46
2022-10-31T18:53:27.185Z,19.43
2022-10-31T18:54:59.440Z,19.43
2022-10-31T18:56:34.132Z,19.44
2022-10-31T18:58:05.737Z,19.48
2022-10-31T18:59:37.298Z,19.49
2022-10-31T19:01:12.332Z,19.48
2022-10-31T19:02:44.037Z,19.45
2022-10-31T19:04:15.639Z,19.41
2022-10-31T19:05:47.456Z,19.38
2022-10-31T19:07:19.223Z,19.36
2022-10-31T19:08:51.433Z,19.30
2022-10-31T19:10:22.970Z,19.17
2022-10-31T19:11:54.490Z,19.13
2022-10-31T19:13:26.461Z,19.11
2022-10-31T19:14:58.106Z,19.08
2022-10-31T19:16:29.672Z,19.01
2022-10-31T19:18:01.604Z,18.91
2022-10-31T19:19:33.591Z,18.86
2022-10-31T19:21:11.944Z,18.82
2022-10-31T19:22:43.985Z,18.77
2022-10-31T19:24:15.662Z,18.71
2022-10-31T19:25:47.219Z,18.61
2022-10-31T19:27:19.031Z,18.56
2022-10-31T19:28:50.715Z,18.56
2022-10-31T19:30:22.305Z,18.56
2022-10-31T19:31:54.063Z,18.53
2022-10-31T19:33:35.013Z,18.52
2022-10-31T19:35:11.743Z,18.50
2022-10-31T19:36:43.786Z,18.49
2022-10-31T19:38:15.430Z,18.51
2022-10-31T19:39:46.963Z,18.53
2022-10-31T19:41:21.721Z,18.52
2022-10-31T19:42:53.832Z,18.55
2022-10-31T19:44:25.528Z,18.51
2022-10-31T19:45:58.686Z,18.54
2022-10-31T19:47:30.364Z,18.52
2022-10-31T19:49:01.948Z,18.57
2022-10-31T19:50:33.589Z,18.59
2022-10-31T19:52:05.337Z,18.62
2022-10-31T19:53:36.979Z,18.63
2022-10-31T19:55:08.610Z,18.61
2022-10-31T19:56:40.253Z,18.50
2022-10-31T19:58:12.118Z,18.44
2022-10-31T19:59:43.813Z,18.38
2022-10-31T20:01:19.567Z,18.29
2022-10-31T20:02:51.418Z,18.20
2022-10-31T20:04:23.365Z,18.12
2022-10-31T20:05:55.534Z,18.05
2022-10-31T20:07:27.227Z,18.01
2022-10-31T20:08:59.793Z,17.96
2022-10-31T20:10:31.322Z,17.92
2022-10-31T20:12:02.907Z,17.86
2022-10-31T20:13:34.705Z,17.83
2022-10-31T20:15:06.571Z,17.83
2022-10-31T20:16:38.287Z,17.83
2022-10-31T20:18:09.957Z,17.77
2022-10-31T20:19:42.145Z,17.73
2022-10-31T20:21:15.062Z,17.69